Latest Weather Observations for Little Bay

IDN60801

Issued at 9:22 pm EST Wednesday 5 August 2020 (issued every 10 minutes, with the page automatically refreshed every 10 minutes)

About weather observations | Map of weather stations | Latest weather observations for NSW | Other Formats
Station Details ID: 066051 Name: LITTLE BAY (THE COAST GOLF CLUB) Lat: -33.98 Lon: 151.25 Height: 22.0 m
Data from the previous 72 hours. | See also: Recent months at Little Bay
Date/Time
EST
Temp
°C
App
Temp
°C
Dew
Point
°C
Rel
Hum
%
Delta-T
°C
Wind Press
QNH
hPa
Press
MSL
hPa
Rain since
9am
mm
Dir  Spd
km/h
Gust
km/h
Spd
kts
Gust
kts
05/09:00pm - - - - - SW 11 17 6 9 - - -
05/08:30pm - - - - - W 19 32 10 17 - - -
05/08:00pm - - - - - W 22 33 12 18 - - -
05/07:30pm - - - - - W 20 33 11 18 - - -
05/07:00pm - - - - - WSW 15 26 8 14 - - -
05/06:30pm - - - - - W 19 32 10 17 - - -
05/06:00pm - - - - - WSW 19 32 10 17 - - -
05/05:30pm - - - - - W 13 24 7 13 - - -
05/05:00pm - - - - - W 17 32 9 17 - - -
05/04:30pm - - - - - W 19 32 10 17 - - -
05/04:00pm - - - - - WSW 19 30 10 16 - - -
05/03:30pm - - - - - W 19 30 10 16 - - -
05/03:00pm - - - - - WSW 20 33 11 18 - - -
05/02:30pm - - - - - WSW 17 30 9 16 - - -
05/02:00pm - - - - - W 17 32 9 17 - - -
05/01:30pm - - - - - W 17 28 9 15 - - -
05/01:00pm - - - - - W 13 22 7 12 - - -
05/12:30pm - - - - - WNW 19 30 10 16 - - -
05/12:00pm - - - - - WNW 17 30 9 16 - - -
05/11:30am - - - - - W 22 35 12 19 - - -
05/11:00am - - - - - WNW 22 37 12 20 - - -
05/10:30am - - - - - WNW 19 35 10 19 - - -
05/10:00am - - - - - WNW 20 35 11 19 - - -
05/09:30am - - - - - WNW 15 28 8 15 - - -
05/09:00am - - - - - NW 19 30 10 16 - - -
05/08:30am - - - - - NW 15 26 8 14 - - -
05/08:00am - - - - - NW 17 28 9 15 - - -
05/07:30am - - - - - NNW 7 13 4 7 - - -
05/07:00am - - - - - NW 11 20 6 11 - - -
05/06:30am - - - - - WNW 11 17 6 9 - - -
05/06:00am - - - - - WNW 9 17 5 9 - - -
05/05:30am - - - - - WNW 15 24 8 13 - - -
05/05:00am - - - - - WNW 17 32 9 17 - - -
05/04:30am - - - - - WNW 11 24 6 13 - - -
05/04:00am - - - - - W 11 22 6 12 - - -
05/03:30am - - - - - W 15 24 8 13 - - -
05/03:00am - - - - - W 15 24 8 13 - - -
05/02:30am - - - - - W 15 24 8 13 - - -
05/02:00am - - - - - W 17 26 9 14 - - -
05/01:30am - - - - - W 20 30 11 16 - - -
05/01:00am - - - - - W 22 33 12 18 - - -
05/12:30am - - - - - W 20 35 11 19 - - -
05/12:00am - - - - - W 17 28 9 15 - - -
 
Date/Time
EST
Temp
°C
App
Temp
°C
Dew
Point
°C
Rel
Hum
%
Delta-T
°C
Wind Press
QNH
hPa
Press
MSL
hPa
Rain since
9am
mm
Dir  Spd
km/h
Gust
km/h
Spd
kts
Gust
kts
04/11:30pm - - - - - W 24 37 13 20 - - -
04/11:00pm - - - - - WSW 20 32 11 17 - - -
04/10:30pm - - - - - WSW 22 35 12 19 - - -
04/10:00pm - - - - - SW 15 22 8 12 - - -
04/09:30pm - - - - - SW 13 20 7 11 - - -
04/09:00pm - - - - - SW 11 20 6 11 - - -
04/08:30pm - - - - - SW 15 22 8 12 - - -
04/08:00pm - - - - - SW 15 24 8 13 - - -
04/07:30pm - - - - - SW 9 13 5 7 - - -
04/07:00pm - - - - - W 11 17 6 9 - - -
04/06:30pm - - - - - W 15 24 8 13 - - -
04/06:00pm - - - - - WSW 13 19 7 10 - - -
04/05:30pm - - - - - W 17 30 9 16 - - -
04/05:00pm - - - - - W 17 24 9 13 - - -
04/04:30pm - - - - - WNW 17 26 9 14 - - -
04/04:00pm - - - - - W 15 22 8 12 - - -
04/03:30pm - - - - - NW 4 9 2 5 - - -
04/03:00pm - - - - - WNW 9 19 5 10 - - -
04/02:30pm - - - - - NW 15 22 8 12 - - -
04/02:00pm - - - - - NW 15 30 8 16 - - -
04/01:30pm - - - - - NW 13 26 7 14 - - -
04/01:00pm - - - - - NW 13 20 7 11 - - -
04/12:30pm - - - - - NW 11 20 6 11 - - -
04/12:00pm - - - - - NW 11 26 6 14 - - -
04/11:30am - - - - - NNW 15 26 8 14 - - -
04/11:00am - - - - - NW 13 22 7 12 - - -
04/10:30am - - - - - NNW 9 17 5 9 - - -
04/10:00am - - - - - NNW 9 17 5 9 - - -
04/09:30am - - - - - NW 9 13 5 7 - - -
04/09:00am - - - - - NW 4 7 2 4 - - -
04/08:30am - - - - - ESE 4 7 2 4 - - -
04/08:00am - - - - - NW 11 17 6 9 - - -
04/07:30am - - - - - NW 9 13 5 7 - - -
04/07:00am - - - - - W 4 6 2 3 - - -
04/06:30am - - - - - WNW 4 6 2 3 - - -
04/06:00am - - - - - W 6 9 3 5 - - -
04/05:30am - - - - - W 7 11 4 6 - - -
04/05:00am - - - - - W 9 11 5 6 - - -
04/04:30am - - - - - WNW 7 11 4 6 - - -
04/04:00am - - - - - WNW 9 13 5 7 - - -
04/03:30am - - - - - WNW 11 17 6 9 - - -
04/03:00am - - - - - WNW 11 15 6 8 - - -
04/02:30am - - - - - W 11 15 6 8 - - -
04/02:00am - - - - - WNW 11 15 6 8 - - -
04/01:30am - - - - - WNW 11 13 6 7 - - -
04/01:00am - - - - - W 9 11 5 6 - - -
04/12:30am - - - - - WNW 7 7 4 4 - - -
04/12:00am - - - - - WNW 6 7 3 4 - - -
 
Date/Time
EST
Temp
°C
App
Temp
°C
Dew
Point
°C
Rel
Hum
%
Delta-T
°C
Wind Press
QNH
hPa
Press
MSL
hPa
Rain since
9am
mm
Dir  Spd
km/h
Gust
km/h
Spd
kts
Gust
kts
03/11:30pm - - - - - WNW 7 9 4 5 - - -
03/11:00pm - - - - - WNW 7 9 4 5 - - -
03/10:30pm - - - - - W 9 11 5 6 - - -
03/10:00pm - - - - - WNW 7 7 4 4 - - -
03/09:30pm - - - - - WNW 6 7 3 4 - - -
03/09:00pm - - - - - W 6 9 3 5 - - -
03/08:30pm - - - - - W 6 7 3 4 - - -
03/08:00pm - - - - - W 7 9 4 5 - - -
03/07:30pm - - - - - W 6 6 3 3 - - -
03/07:00pm - - - - - WNW 6 6 3 3 - - -
03/06:30pm - - - - - NW 4 4 2 2 - - -
03/06:00pm - - - - - NW 6 6 3 3 - - -
03/05:30pm - - - - - NNE 2 6 1 3 - - -
03/05:00pm - - - - - CALM 0 0 0 0 - - -
03/04:30pm - - - - - NE 2 6 1 3 - - -
03/04:00pm - - - - - N 2 4 1 2 - - -
03/03:30pm - - - - - N 4 6 2 3 - - -
03/03:00pm - - - - - N 7 13 4 7 - - -
03/02:30pm - - - - - NNE 9 13 5 7 - - -
03/02:00pm - - - - - NNE 11 15 6 8 - - -
03/01:30pm - - - - - NE 11 13 6 7 - - -
03/01:00pm - - - - - NW 7 9 4 5 - - -
03/12:30pm - - - - - NNW 7 13 4 7 - - -
03/12:00pm - - - - - NNW 7 11 4 6 - - -
03/11:30am - - - - - NW 9 13 5 7 - - -
03/11:00am - - - - - NW 9 17 5 9 - - -
03/10:30am - - - - - WNW 9 17 5 9 - - -
03/10:00am - - - - - WNW 9 19 5 10 - - -
03/09:30am - - - - - WNW 15 24 8 13 - - -
03/09:00am - - - - - WNW 17 22 9 12 - - -
03/08:30am - - - - - WNW 17 24 9 13 - - -
03/08:00am - - - - - WNW 15 20 8 11 - - -
03/07:30am - - - - - WNW 15 22 8 12 - - -
03/07:00am - - - - - WNW 17 24 9 13 - - -
03/06:30am - - - - - WNW 15 22 8 12 - - -
03/06:00am - - - - - WNW 15 24 8 13 - - -
03/05:30am - - - - - WNW 17 20 9 11 - - -
03/05:00am - - - - - WNW 11 17 6 9 - - -
03/04:30am - - - - - WNW 13 19 7 10 - - -
03/04:00am - - - - - WNW 15 22 8 12 - - -
03/03:30am - - - - - WNW 15 20 8 11 - - -
03/03:00am - - - - - WNW 13 17 7 9 - - -
03/02:30am - - - - - WNW 11 13 6 7 - - -
03/02:00am - - - - - WNW 7 9 4 5 - - -
03/01:30am - - - - - WNW 9 11 5 6 - - -
03/01:00am - - - - - WNW 9 9 5 5 - - -
03/12:30am - - - - - W 9 11 5 6 - - -
03/12:00am - - - - - W 7 9 4 5 - - -
 
Date/Time
EST
Temp
°C
App
Temp
°C
Dew
Point
°C
Rel
Hum
%
Delta-T
°C
Wind Press
QNH
hPa
Press
MSL
hPa
Rain since
9am
mm
Dir  Spd
km/h
Gust
km/h
Spd
kts
Gust
kts
02/11:30pm - - - - - WNW 7 11 4 6 - - -
02/11:00pm - - - - - NW 6 7 3 4 - - -
02/10:30pm - - - - - NW 6 7 3 4 - - -
02/10:00pm - - - - - NNW 4 6 2 3 - - -
02/09:30pm - - - - - NNW 4 6 2 3 - - -

Other formats

Comma delimited format used in spreadsheet applications
http://www.bom.gov.au/fwo/IDN60801/IDN60801.94780.axf

JavaScript Object Notation format (JSON) in row-major order
http://www.bom.gov.au/fwo/IDN60801/IDN60801.94780.json

Data quality

Most of these data are generated automatically and are frequently updated. Quality checks on data are not normally performed. It is possible for incorrect values to appear. Refer to information at About Latest Weather Observations and please check the disclaimer before using these data.